sensor_id;sensor_type;location;lat;lon;timestamp;pressure;altitude;pressure_sealevel;temperature;humidity
47240;BME280;32978;53.586;10.052;2024-02-04T00:03:50;101718.31;;;5.51;100.00
47240;BME280;32978;53.586;10.052;2024-02-04T00:08:47;101713.69;;;5.51;100.00
47240;BME280;32978;53.586;10.052;2024-02-04T00:13:43;101719.66;;;5.48;100.00
47240;BME280;32978;53.586;10.052;2024-02-04T00:18:40;101712.53;;;5.42;100.00
47240;BME280;32978;53.586;10.052;2024-02-04T00:23:37;101726.63;;;5.39;100.00
47240;BME280;32978;53.586;10.052;2024-02-04T00:28:33;101736.91;;;5.37;100.00
47240;BME280;32978;53.586;10.052;2024-02-04T00:33:30;101727.97;;;5.36;100.00
47240;BME280;32978;53.586;10.052;2024-02-04T00:38:26;101718.66;;;5.27;100.00
47240;BME280;32978;53.586;10.052;2024-02-04T00:43:23;101719.47;;;5.27;100.00
47240;BME280;32978;53.586;10.052;2024-02-04T00:48:19;101697.78;;;5.27;100.00
47240;BME280;32978;53.586;10.052;2024-02-04T00:53:16;101674.41;;;5.21;100.00
47240;BME280;32978;53.586;10.052;2024-02-04T00:58:13;101683.06;;;5.18;100.00
47240;BME280;32978;53.586;10.052;2024-02-04T01:03:09;101670.56;;;5.17;100.00
47240;BME280;32978;53.586;10.052;2024-02-04T01:08:06;101675.00;;;5.28;100.00
47240;BME280;32978;53.586;10.052;2024-02-04T01:13:05;101669.38;;;5.40;100.00
47240;BME280;32978;53.586;10.052;2024-02-04T01:18:02;101671.88;;;5.47;100.00
47240;BME280;32978;53.586;10.052;2024-02-04T01:22:59;101657.56;;;5.57;100.00
47240;BME280;32978;53.586;10.052;2024-02-04T01:27:55;101658.41;;;5.57;100.00
47240;BME280;32978;53.586;10.052;2024-02-04T01:32:52;101668.72;;;5.60;100.00
47240;BME280;32978;53.586;10.052;2024-02-04T01:37:48;101678.00;;;5.64;100.00
47240;BME280;32978;53.586;10.052;2024-02-04T01:42:45;101668.53;;;5.72;100.00
47240;BME280;32978;53.586;10.052;2024-02-04T01:47:41;101661.75;;;5.75;100.00
47240;BME280;32978;53.586;10.052;2024-02-04T01:52:39;101665.59;;;5.79;100.00
47240;BME280;32978;53.586;10.052;2024-02-04T01:57:37;101661.78;;;5.80;100.00
47240;BME280;32978;53.586;10.052;2024-02-04T02:02:39;101667.28;;;5.85;100.00
47240;BME280;32978;53.586;10.052;2024-02-04T02:07:36;101665.38;;;5.90;100.00
47240;BME280;32978;53.586;10.052;2024-02-04T02:12:49;101671.06;;;5.89;100.00
47240;BME280;32978;53.586;10.052;2024-02-04T02:23:11;101657.03;;;5.97;100.00
47240;BME280;32978;53.586;10.052;2024-02-04T02:28:08;101658.09;;;5.96;100.00
47240;BME280;32978;53.586;10.052;2024-02-04T02:33:06;101639.59;;;5.93;100.00
47240;BME280;32978;53.586;10.052;2024-02-04T02:43:22;101634.38;;;5.76;100.00
47240;BME280;32978;53.586;10.052;2024-02-04T02:48:19;101636.81;;;5.78;100.00
47240;BME280;32978;53.586;10.052;2024-02-04T02:53:16;101622.66;;;5.70;100.00
47240;BME280;32978;53.586;10.052;2024-02-04T02:58:15;101621.84;;;5.70;100.00
47240;BME280;32978;53.586;10.052;2024-02-04T03:03:11;101615.63;;;5.75;100.00
47240;BME280;32978;53.586;10.052;2024-02-04T03:08:08;101616.75;;;5.79;100.00
47240;BME280;32978;53.586;10.052;2024-02-04T03:13:04;101598.22;;;5.70;100.00
47240;BME280;32978;53.586;10.052;2024-02-04T03:18:02;101592.81;;;5.70;100.00
47240;BME280;32978;53.586;10.052;2024-02-04T03:22:59;101598.22;;;5.70;100.00
47240;BME280;32978;53.586;10.052;2024-02-04T03:27:55;101606.88;;;5.62;100.00
47240;BME280;32978;53.586;10.052;2024-02-04T03:32:52;101605.25;;;5.61;100.00
47240;BME280;32978;53.586;10.052;2024-02-04T03:37:49;101587.34;;;5.60;100.00
47240;BME280;32978;53.586;10.052;2024-02-04T03:42:45;101592.22;;;5.58;100.00
47240;BME280;32978;53.586;10.052;2024-02-04T03:47:42;101585.66;;;5.54;100.00
47240;BME280;32978;53.586;10.052;2024-02-04T03:52:38;101581.91;;;5.60;100.00
47240;BME280;32978;53.586;10.052;2024-02-04T03:57:35;101563.94;;;5.49;100.00
47240;BME280;32978;53.586;10.052;2024-02-04T04:02:31;101562.31;;;5.48;100.00
47240;BME280;32978;53.586;10.052;2024-02-04T04:07:28;101561.22;;;5.49;100.00
47240;BME280;32978;53.586;10.052;2024-02-04T04:12:24;101559.56;;;5.43;100.00
47240;BME280;32978;53.586;10.052;2024-02-04T04:17:21;101556.59;;;5.44;100.00
47240;BME280;32978;53.586;10.052;2024-02-04T04:22:17;101564.47;;;5.41;100.00
47240;BME280;32978;53.586;10.052;2024-02-04T04:27:14;101569.31;;;5.39;100.00
47240;BME280;32978;53.586;10.052;2024-02-04T04:32:10;101562.25;;;5.38;100.00
47240;BME280;32978;53.586;10.052;2024-02-04T04:37:07;101562.22;;;5.33;100.00
47240;BME280;32978;53.586;10.052;2024-02-04T04:42:04;101573.06;;;5.33;100.00
47240;BME280;32978;53.586;10.052;2024-02-04T04:47:00;101564.63;;;5.29;100.00
47240;BME280;32978;53.586;10.052;2024-02-04T04:51:57;101551.59;;;5.26;100.00
47240;BME280;32978;53.586;10.052;2024-02-04T04:56:53;101524.78;;;5.24;100.00
47240;BME280;32978;53.586;10.052;2024-02-04T05:01:50;101535.63;;;5.24;100.00
47240;BME280;32978;53.586;10.052;2024-02-04T05:06:47;101516.03;;;5.17;100.00
47240;BME280;32978;53.586;10.052;2024-02-04T05:11:43;101519.28;;;5.14;100.00
47240;BME280;32978;53.586;10.052;2024-02-04T05:16:40;101525.78;;;5.13;100.00
47240;BME280;32978;53.586;10.052;2024-02-04T05:21:39;101503.00;;;5.14;100.00
47240;BME280;32978;53.586;10.052;2024-02-04T05:26:39;101515.19;;;5.12;100.00
47240;BME280;32978;53.586;10.052;2024-02-04T05:31:40;101485.63;;;5.10;100.00
47240;BME280;32978;53.586;10.052;2024-02-04T05:36:37;101502.44;;;5.12;100.00
47240;BME280;32978;53.586;10.052;2024-02-04T05:41:34;101482.34;;;5.08;100.00
47240;BME280;32978;53.586;10.052;2024-02-04T05:46:31;101475.31;;;5.07;100.00
47240;BME280;32978;53.586;10.052;2024-02-04T05:51:28;101499.72;;;5.07;100.00
47240;BME280;32978;53.586;10.052;2024-02-04T05:56:24;101466.38;;;5.06;100.00
47240;BME280;32978;53.586;10.052;2024-02-04T06:01:21;101486.47;;;5.11;100.00
47240;BME280;32978;53.586;10.052;2024-02-04T06:06:18;101487.84;;;5.18;100.00
47240;BME280;32978;53.586;10.052;2024-02-04T06:11:17;101487.84;;;5.18;100.00
47240;BME280;32978;53.586;10.052;2024-02-04T06:16:14;101490.31;;;5.20;100.00
47240;BME280;32978;53.586;10.052;2024-02-04T06:21:10;101485.13;;;5.18;100.00
47240;BME280;32978;53.586;10.052;2024-02-04T06:26:07;101483.50;;;5.17;100.00
47240;BME280;32978;53.586;10.052;2024-02-04T06:31:03;101478.63;;;5.19;100.00
47240;BME280;32978;53.586;10.052;2024-02-04T06:36:00;101467.78;;;5.19;100.00
47240;BME280;32978;53.586;10.052;2024-02-04T06:40:57;101458.56;;;5.15;100.00
47240;BME280;32978;53.586;10.052;2024-02-04T06:45:53;101462.88;;;5.16;100.00
47240;BME280;32978;53.586;10.052;2024-02-04T06:50:50;101459.94;;;5.18;100.00
47240;BME280;32978;53.586;10.052;2024-02-04T06:55:46;101446.38;;;5.18;100.00
47240;BME280;32978;53.586;10.052;2024-02-04T07:00:43;101462.34;;;5.19;100.00
47240;BME280;32978;53.586;10.052;2024-02-04T07:05:40;101449.34;;;5.16;100.00
47240;BME280;32978;53.586;10.052;2024-02-04T07:10:37;101445.53;;;5.17;100.00
47240;BME280;32978;53.586;10.052;2024-02-04T07:15:33;101435.81;;;5.21;100.00
47240;BME280;32978;53.586;10.052;2024-02-04T07:20:30;101458.03;;;5.23;100.00
47240;BME280;32978;53.586;10.052;2024-02-04T07:25:26;101466.75;;;5.25;100.00
47240;BME280;32978;53.586;10.052;2024-02-04T07:30:23;101453.75;;;5.27;100.00
47240;BME280;32978;53.586;10.052;2024-02-04T07:35:19;101434.78;;;5.33;100.00
47240;BME280;32978;53.586;10.052;2024-02-04T07:40:16;101443.47;;;5.35;100.00
47240;BME280;32978;53.586;10.052;2024-02-04T07:45:12;101435.06;;;5.36;100.00
47240;BME280;32978;53.586;10.052;2024-02-04T07:50:09;101434.78;;;5.38;100.00
47240;BME280;32978;53.586;10.052;2024-02-04T07:55:06;101427.22;;;5.45;100.00
47240;BME280;32978;53.586;10.052;2024-02-04T08:00:03;101460.06;;;5.48;100.00
47240;BME280;32978;53.586;10.052;2024-02-04T08:05:03;101442.69;;;5.49;100.00
47240;BME280;32978;53.586;10.052;2024-02-04T08:10:00;101431.03;;;5.54;100.00
47240;BME280;32978;53.586;10.052;2024-02-04T08:14:57;101426.72;;;5.58;100.00
47240;BME280;32978;53.586;10.052;2024-02-04T08:19:53;101436.53;;;5.64;100.00
47240;BME280;32978;53.586;10.052;2024-02-04T08:24:50;101474.78;;;5.68;100.00
47240;BME280;32978;53.586;10.052;2024-02-04T08:29:47;101443.03;;;5.68;100.00
47240;BME280;32978;53.586;10.052;2024-02-04T08:34:43;101433.81;;;5.69;100.00
47240;BME280;32978;53.586;10.052;2024-02-04T08:39:40;101445.53;;;5.80;100.00
47240;BME280;32978;53.586;10.052;2024-02-04T08:44:36;101443.63;;;5.86;100.00
47240;BME280;32978;53.586;10.052;2024-02-04T08:49:36;101443.13;;;5.94;100.00
47240;BME280;32978;53.586;10.052;2024-02-04T08:54:33;101444.75;;;6.00;100.00
47240;BME280;32978;53.586;10.052;2024-02-04T08:59:29;101438.78;;;6.03;100.00
47240;BME280;32978;53.586;10.052;2024-02-04T09:04:26;101405.69;;;6.06;100.00
47240;BME280;32978;53.586;10.052;2024-02-04T09:09:22;101419.25;;;6.11;100.00
47240;BME280;32978;53.586;10.052;2024-02-04T09:14:19;101421.97;;;6.17;100.00
47240;BME280;32978;53.586;10.052;2024-02-04T09:19:15;101424.69;;;6.11;100.00
47240;BME280;32978;53.586;10.052;2024-02-04T09:24:12;101455.09;;;6.14;100.00
47240;BME280;32978;53.586;10.052;2024-02-04T09:29:09;101432.28;;;6.15;100.00
47240;BME280;32978;53.586;10.052;2024-02-04T09:34:05;101450.75;;;6.23;100.00
47240;BME280;32978;53.586;10.052;2024-02-04T09:39:02;101444.22;;;6.24;100.00
47240;BME280;32978;53.586;10.052;2024-02-04T09:44:00;101433.91;;;6.26;100.00
47240;BME280;32978;53.586;10.052;2024-02-04T09:48:59;101436.91;;;6.40;100.00
47240;BME280;32978;53.586;10.052;2024-02-04T09:54:03;101433.38;;;6.44;100.00
47240;BME280;32978;53.586;10.052;2024-02-04T09:59:03;101436.09;;;6.39;100.00
47240;BME280;32978;53.586;10.052;2024-02-04T10:04:01;101425.25;;;6.39;100.00
47240;BME280;32978;53.586;10.052;2024-02-04T10:08:58;101430.66;;;6.44;100.00
47240;BME280;32978;53.586;10.052;2024-02-04T10:13:56;101417.06;;;6.44;100.00
47240;BME280;32978;53.586;10.052;2024-02-04T10:18:52;101401.88;;;6.48;100.00
47240;BME280;32978;53.586;10.052;2024-02-04T10:23:52;101405.66;;;6.52;100.00
47240;BME280;32978;53.586;10.052;2024-02-04T10:28:49;101398.59;;;6.51;100.00
47240;BME280;32978;53.586;10.052;2024-02-04T10:33:45;101398.59;;;6.57;100.00
47240;BME280;32978;53.586;10.052;2024-02-04T10:38:42;101394.75;;;6.68;100.00
47240;BME280;32978;53.586;10.052;2024-02-04T10:43:39;101411.63;;;6.70;100.00
47240;BME280;32978;53.586;10.052;2024-02-04T10:48:41;101398.31;;;6.73;100.00
47240;BME280;32978;53.586;10.052;2024-02-04T10:53:41;101379.81;;;6.76;100.00
47240;BME280;32978;53.586;10.052;2024-02-04T10:58:39;101379.81;;;6.76;100.00
47240;BME280;32978;53.586;10.052;2024-02-04T11:03:36;101361.06;;;6.74;100.00
47240;BME280;32978;53.586;10.052;2024-02-04T11:08:35;101383.31;;;6.81;100.00
47240;BME280;32978;53.586;10.052;2024-02-04T11:13:32;101370.81;;;6.85;100.00
47240;BME280;32978;53.586;10.052;2024-02-04T11:18:55;101386.00;;;6.97;100.00
47240;BME280;32978;53.586;10.052;2024-02-04T11:29:14;101383.50;;;7.05;100.00
47240;BME280;32978;53.586;10.052;2024-02-04T11:34:10;101367.50;;;7.04;100.00
47240;BME280;32978;53.586;10.052;2024-02-04T11:39:14;101354.09;;;7.18;100.00
47240;BME280;32978;53.586;10.052;2024-02-04T11:44:11;101354.88;;;7.23;100.00
47240;BME280;32978;53.586;10.052;2024-02-04T11:49:15;101339.88;;;7.31;100.00
47240;BME280;32978;53.586;10.052;2024-02-04T11:54:14;101360.84;;;7.25;100.00
47240;BME280;32978;53.586;10.052;2024-02-04T11:59:12;101357.00;;;7.36;100.00
47240;BME280;32978;53.586;10.052;2024-02-04T12:04:13;101355.09;;;7.37;100.00
47240;BME280;32978;53.586;10.052;2024-02-04T12:09:10;101350.94;;;7.50;100.00
47240;BME280;32978;53.586;10.052;2024-02-04T12:14:07;101356.63;;;7.53;100.00
47240;BME280;32978;53.586;10.052;2024-02-04T12:19:03;101334.00;;;7.58;100.00
47240;BME280;32978;53.586;10.052;2024-02-04T12:24:01;101338.91;;;7.56;100.00
47240;BME280;32978;53.586;10.052;2024-02-04T12:28:58;101340.78;;;7.61;100.00
47240;BME280;32978;53.586;10.052;2024-02-04T12:33:59;101332.94;;;7.59;100.00
47240;BME280;32978;53.586;10.052;2024-02-04T12:38:58;101322.06;;;7.54;100.00
47240;BME280;32978;53.586;10.052;2024-02-04T12:43:56;101323.16;;;7.53;100.00
47240;BME280;32978;53.586;10.052;2024-02-04T12:48:55;101351.97;;;7.54;100.00
47240;BME280;32978;53.586;10.052;2024-02-04T12:54:08;101352.47;;;7.61;100.00
47240;BME280;32978;53.586;10.052;2024-02-04T12:59:06;101342.16;;;7.58;100.00
47240;BME280;32978;53.586;10.052;2024-02-04T13:04:02;101328.59;;;7.53;100.00
47240;BME280;32978;53.586;10.052;2024-02-04T13:08:59;101331.84;;;7.55;100.00
47240;BME280;32978;53.586;10.052;2024-02-04T13:13:56;101327.75;;;7.57;100.00
47240;BME280;32978;53.586;10.052;2024-02-04T13:18:53;101323.66;;;7.60;100.00
47240;BME280;32978;53.586;10.052;2024-02-04T13:23:50;101315.44;;;7.65;100.00
47240;BME280;32978;53.586;10.052;2024-02-04T13:28:47;101317.09;;;7.66;100.00
47240;BME280;32978;53.586;10.052;2024-02-04T13:33:44;101313.84;;;7.64;100.00
47240;BME280;32978;53.586;10.052;2024-02-04T13:38:40;101312.19;;;7.63;100.00
47240;BME280;32978;53.586;10.052;2024-02-04T13:43:38;101313.03;;;7.64;100.00
47240;BME280;32978;53.586;10.052;2024-02-04T13:48:35;101305.09;;;7.67;100.00
47240;BME280;32978;53.586;10.052;2024-02-04T13:53:32;101311.16;;;7.59;100.00
47240;BME280;32978;53.586;10.052;2024-02-04T13:58:30;101316.28;;;7.61;100.00
47240;BME280;32978;53.586;10.052;2024-02-04T14:03:27;101293.75;;;7.55;100.00
47240;BME280;32978;53.586;10.052;2024-02-04T14:08:24;101294.31;;;7.52;100.00
47240;BME280;32978;53.586;10.052;2024-02-04T14:13:20;101295.63;;;7.59;100.00
47240;BME280;32978;53.586;10.052;2024-02-04T14:18:18;101293.75;;;7.55;100.00
47240;BME280;32978;53.586;10.052;2024-02-04T14:23:15;101280.19;;;7.50;100.00
47240;BME280;32978;53.586;10.052;2024-02-04T14:28:12;101278.56;;;7.49;100.00
47240;BME280;32978;53.586;10.052;2024-02-04T14:33:08;101279.13;;;7.46;100.00
47240;BME280;32978;53.586;10.052;2024-02-04T14:38:05;101283.78;;;7.45;100.00
47240;BME280;32978;53.586;10.052;2024-02-04T14:43:02;101287.34;;;7.41;100.00
47240;BME280;32978;53.586;10.052;2024-02-04T14:47:59;101292.19;;;7.44;100.00
47240;BME280;32978;53.586;10.052;2024-02-04T14:52:55;101287.34;;;7.41;100.00
47240;BME280;32978;53.586;10.052;2024-02-04T14:57:52;101318.09;;;7.36;100.00
47240;BME280;32978;53.586;10.052;2024-02-04T15:02:48;101303.66;;;7.35;100.00
47240;BME280;32978;53.586;10.052;2024-02-04T15:07:45;101292.78;;;7.35;100.00
47240;BME280;32978;53.586;10.052;2024-02-04T15:12:45;101279.19;;;7.35;100.00
47240;BME280;32978;53.586;10.052;2024-02-04T15:17:41;101285.78;;;7.29;100.00
47240;BME280;32978;53.586;10.052;2024-02-04T15:22:41;101274.94;;;7.19;100.00
47240;BME280;32978;53.586;10.052;2024-02-04T15:27:38;101278.75;;;7.18;100.00
47240;BME280;32978;53.586;10.052;2024-02-04T15:32:35;101299.22;;;7.10;100.00
47240;BME280;32978;53.586;10.052;2024-02-04T15:37:31;101281.03;;;7.06;100.00
47240;BME280;32978;53.586;10.052;2024-02-04T15:42:28;101263.44;;;6.88;100.00
47240;BME280;32978;53.586;10.052;2024-02-04T15:47:26;101267.56;;;6.80;100.00
47240;BME280;32978;53.586;10.052;2024-02-04T15:52:23;101259.41;;;6.75;100.00
47240;BME280;32978;53.586;10.052;2024-02-04T15:57:20;101268.72;;;6.64;100.00
47240;BME280;32978;53.586;10.052;2024-02-04T16:02:18;101262.22;;;6.49;100.00
47240;BME280;32978;53.586;10.052;2024-02-04T16:07:18;101233.47;;;6.43;100.00
47240;BME280;32978;53.586;10.052;2024-02-04T16:12:17;101234.03;;;6.35;100.00
47240;BME280;32978;53.586;10.052;2024-02-04T16:17:17;101211.78;;;6.28;100.00
47240;BME280;32978;53.586;10.052;2024-02-04T16:22:16;101195.47;;;6.28;100.00
47240;BME280;32978;53.586;10.052;2024-02-04T16:27:12;101175.41;;;6.29;100.00
47240;BME280;32978;53.586;10.052;2024-02-04T16:32:10;101172.44;;;6.20;100.00
47240;BME280;32978;53.586;10.052;2024-02-04T16:37:10;101168.38;;;6.18;100.00
47240;BME280;32978;53.586;10.052;2024-02-04T16:42:07;101147.19;;;6.15;100.00
47240;BME280;32978;53.586;10.052;2024-02-04T16:47:05;101149.94;;;6.09;100.00
47240;BME280;32978;53.586;10.052;2024-02-04T16:52:01;101150.50;;;6.06;100.00
47240;BME280;32978;53.586;10.052;2024-02-04T16:56:58;101133.09;;;6.07;100.00
47240;BME280;32978;53.586;10.052;2024-02-04T17:01:55;101104.88;;;6.03;100.00
47240;BME280;32978;53.586;10.052;2024-02-04T17:06:51;101102.16;;;6.03;100.00
47240;BME280;32978;53.586;10.052;2024-02-04T17:11:48;101094.00;;;6.03;100.00
47240;BME280;32978;53.586;10.052;2024-02-04T17:22:00;101077.19;;;6.06;100.00
47240;BME280;32978;53.586;10.052;2024-02-04T17:27:04;101075.56;;;6.05;100.00
47240;BME280;32978;53.586;10.052;2024-02-04T17:32:02;101057.09;;;6.07;100.00
47240;BME280;32978;53.586;10.052;2024-02-04T17:37:00;101044.88;;;6.05;100.00
47240;BME280;32978;53.586;10.052;2024-02-04T17:41:56;101048.41;;;6.10;100.00
47240;BME280;32978;53.586;10.052;2024-02-04T17:46:53;101042.97;;;6.10;100.00
47240;BME280;32978;53.586;10.052;2024-02-04T17:51:50;101042.44;;;6.08;100.00
47240;BME280;32978;53.586;10.052;2024-02-04T17:56:46;101042.72;;;6.07;100.00
47240;BME280;32978;53.586;10.052;2024-02-04T18:01:43;101044.31;;;6.08;100.00
47240;BME280;32978;53.586;10.052;2024-02-04T18:06:40;101043.50;;;6.07;100.00
47240;BME280;32978;53.586;10.052;2024-02-04T18:11:37;101036.75;;;6.05;100.00
47240;BME280;32978;53.586;10.052;2024-02-04T18:16:33;101026.97;;;6.09;100.00
47240;BME280;32978;53.586;10.052;2024-02-04T18:21:30;101015.81;;;6.10;100.00
47240;BME280;32978;53.586;10.052;2024-02-04T18:26:28;101001.16;;;6.11;100.00
47240;BME280;32978;53.586;10.052;2024-02-04T18:31:27;101007.38;;;6.12;100.00
47240;BME280;32978;53.586;10.052;2024-02-04T18:36:23;100990.28;;;6.11;100.00
47240;BME280;32978;53.586;10.052;2024-02-04T18:41:22;100966.38;;;6.14;100.00
47240;BME280;32978;53.586;10.052;2024-02-04T18:46:19;100973.16;;;6.16;100.00
47240;BME280;32978;53.586;10.052;2024-02-04T18:51:15;100953.34;;;6.16;100.00
47240;BME280;32978;53.586;10.052;2024-02-04T18:56:12;100946.53;;;6.18;100.00
47240;BME280;32978;53.586;10.052;2024-02-04T19:01:12;100938.38;;;6.18;100.00
47240;BME280;32978;53.586;10.052;2024-02-04T19:06:10;100941.34;;;6.22;100.00
47240;BME280;32978;53.586;10.052;2024-02-04T19:11:07;100913.09;;;6.23;100.00
47240;BME280;32978;53.586;10.052;2024-02-04T19:16:04;100910.41;;;6.23;100.00
47240;BME280;32978;53.586;10.052;2024-02-04T19:21:01;100897.88;;;6.22;100.00
47240;BME280;32978;53.586;10.052;2024-02-04T19:25:58;100883.25;;;6.23;100.00
47240;BME280;32978;53.586;10.052;2024-02-04T19:30:55;100872.38;;;6.23;100.00
47240;BME280;32978;53.586;10.052;2024-02-04T19:35:51;100865.31;;;6.22;100.00
47240;BME280;32978;53.586;10.052;2024-02-04T19:40:48;100855.84;;;6.19;100.00
47240;BME280;32978;53.586;10.052;2024-02-04T19:45:46;100848.22;;;6.21;100.00
47240;BME280;32978;53.586;10.052;2024-02-04T19:50:43;100830.00;;;6.22;100.00
47240;BME280;32978;53.586;10.052;2024-02-04T19:55:39;100817.53;;;6.21;100.00
47240;BME280;32978;53.586;10.052;2024-02-04T20:00:36;100809.41;;;6.21;100.00
47240;BME280;32978;53.586;10.052;2024-02-04T20:05:33;100803.97;;;6.21;100.00
47240;BME280;32978;53.586;10.052;2024-02-04T20:10:29;100798.25;;;6.22;100.00
47240;BME280;32978;53.586;10.052;2024-02-04T20:15:26;100789.06;;;6.18;100.00
47240;BME280;32978;53.586;10.052;2024-02-04T20:20:24;100780.66;;;6.15;100.00
47240;BME280;32978;53.586;10.052;2024-02-04T20:25:23;100781.78;;;6.14;100.00
47240;BME280;32978;53.586;10.052;2024-02-04T20:30:23;100767.09;;;6.15;100.00
47240;BME280;32978;53.586;10.052;2024-02-04T20:35:24;100747.56;;;6.13;100.00
47240;BME280;32978;53.586;10.052;2024-02-04T20:40:23;100723.66;;;6.15;100.00
47240;BME280;32978;53.586;10.052;2024-02-04T20:45:20;100717.69;;;6.18;100.00
47240;BME280;32978;53.586;10.052;2024-02-04T20:50:16;100710.59;;;6.17;100.00
47240;BME280;32978;53.586;10.052;2024-02-04T20:55:15;100701.66;;;6.16;100.00
47240;BME280;32978;53.586;10.052;2024-02-04T21:00:12;100668.81;;;6.18;100.00
47240;BME280;32978;53.586;10.052;2024-02-04T21:05:09;100663.84;;;6.25;100.00
47240;BME280;32978;53.586;10.052;2024-02-04T21:10:06;100655.69;;;6.25;100.00
47240;BME280;32978;53.586;10.052;2024-02-04T21:15:02;100632.34;;;6.24;100.00
47240;BME280;32978;53.586;10.052;2024-02-04T21:20:03;100611.66;;;6.28;100.00
47240;BME280;32978;53.586;10.052;2024-02-04T21:25:05;100625.69;;;6.35;100.00
47240;BME280;32978;53.586;10.052;2024-02-04T21:30:02;100613.22;;;6.34;100.00
47240;BME280;32978;53.586;10.052;2024-02-04T21:35:01;100602.19;;;6.44;100.00
47240;BME280;32978;53.586;10.052;2024-02-04T21:40:05;100593.97;;;6.49;100.00
47240;BME280;32978;53.586;10.052;2024-02-04T21:45:03;100588.19;;;6.56;100.00
47240;BME280;32978;53.586;10.052;2024-02-04T21:50:00;100580.19;;;6.65;100.00
47240;BME280;32978;53.586;10.052;2024-02-04T21:54:57;100577.81;;;6.77;100.00
47240;BME280;32978;53.586;10.052;2024-02-04T21:59:54;100572.22;;;6.87;100.00
47240;BME280;32978;53.586;10.052;2024-02-04T22:04:54;100556.34;;;6.94;100.00
47240;BME280;32978;53.586;10.052;2024-02-04T22:09:50;100557.38;;;6.99;100.00
47240;BME280;32978;53.586;10.052;2024-02-04T22:14:47;100539.28;;;7.08;100.00
47240;BME280;32978;53.586;10.052;2024-02-04T22:19:44;100535.63;;;7.12;100.00
47240;BME280;32978;53.586;10.052;2024-02-04T22:24:42;100534.06;;;7.25;100.00
47240;BME280;32978;53.586;10.052;2024-02-04T22:29:39;100526.81;;;7.34;100.00
47240;BME280;32978;53.586;10.052;2024-02-04T22:34:35;100507.28;;;7.46;100.00
47240;BME280;32978;53.586;10.052;2024-02-04T22:39:33;100513.53;;;7.61;100.00
47240;BME280;32978;53.586;10.052;2024-02-04T22:44:30;100508.06;;;7.74;100.00
47240;BME280;32978;53.586;10.052;2024-02-04T22:49:26;100512.81;;;7.83;100.00
47240;BME280;32978;53.586;10.052;2024-02-04T22:54:23;100508.78;;;7.94;100.00
47240;BME280;32978;53.586;10.052;2024-02-04T22:59:19;100500.09;;;8.06;100.00
47240;BME280;32978;53.586;10.052;2024-02-04T23:04:16;100526.91;;;8.12;100.00
47240;BME280;32978;53.586;10.052;2024-02-04T23:09:12;100526.16;;;8.20;100.00
47240;BME280;32978;53.586;10.052;2024-02-04T23:14:10;100535.47;;;8.19;100.00
47240;BME280;32978;53.586;10.052;2024-02-04T23:19:06;100512.25;;;8.22;100.00
47240;BME280;32978;53.586;10.052;2024-02-04T23:24:03;100530.69;;;8.25;100.00
47240;BME280;32978;53.586;10.052;2024-02-04T23:28:59;100535.34;;;8.25;100.00
47240;BME280;32978;53.586;10.052;2024-02-04T23:33:56;100516.38;;;8.19;100.00
47240;BME280;32978;53.586;10.052;2024-02-04T23:38:52;100520.22;;;8.18;100.00
47240;BME280;32978;53.586;10.052;2024-02-04T23:43:50;100530.59;;;8.16;100.00
47240;BME280;32978;53.586;10.052;2024-02-04T23:48:46;100512.78;;;8.10;100.00
47240;BME280;32978;53.586;10.052;2024-02-04T23:53:43;100522.53;;;8.11;100.00
47240;BME280;32978;53.586;10.052;2024-02-04T23:58:39;100515.00;;;8.08;100.00
